createdAt,value
2019-05-13T00:01:34.423Z,1.30
2019-05-13T00:03:59.147Z,1.00
2019-05-13T00:06:25.862Z,1.10
2019-05-13T00:08:54.331Z,1.10
2019-05-13T00:11:19.371Z,1.23
2019-05-13T00:13:46.104Z,1.60
2019-05-13T00:16:14.101Z,1.20
2019-05-13T00:18:39.722Z,1.27
2019-05-13T00:21:06.454Z,1.40
2019-05-13T00:23:34.042Z,1.40
2019-05-13T00:26:00.043Z,1.50
2019-05-13T00:28:26.769Z,1.50
2019-05-13T00:30:54.252Z,1.63
2019-05-13T00:33:20.342Z,1.23
2019-05-13T00:35:47.057Z,1.40
2019-05-13T00:38:14.211Z,1.30
2019-05-13T00:40:44.091Z,1.30
2019-05-13T00:43:09.020Z,1.00
2019-05-13T00:45:35.839Z,1.40
2019-05-13T00:48:04.584Z,1.20
2019-05-13T00:50:30.234Z,1.20
2019-05-13T00:52:56.907Z,1.30
2019-05-13T00:55:23.845Z,1.30
2019-05-13T00:57:53.961Z,1.20
2019-05-13T01:00:18.050Z,1.20
2019-05-13T01:02:44.898Z,1.30
2019-05-13T01:05:14.386Z,1.20
2019-05-13T01:07:39.175Z,1.00
2019-05-13T01:10:06.045Z,1.10
2019-05-13T01:12:34.523Z,1.17
2019-05-13T01:15:00.313Z,0.90
2019-05-13T01:17:27.858Z,1.23
2019-05-13T01:19:54.564Z,1.00
2019-05-13T01:22:21.320Z,1.13
2019-05-13T01:24:48.149Z,1.10
2019-05-13T01:27:14.827Z,1.50
2019-05-13T01:29:43.465Z,1.00
2019-05-13T01:32:09.097Z,1.07
2019-05-13T01:34:35.901Z,1.00
2019-05-13T01:37:04.178Z,1.10
2019-05-13T01:42:39.486Z,1.33
2019-05-13T01:45:06.294Z,1.00
2019-05-13T01:47:34.551Z,1.27
2019-05-13T01:50:00.013Z,1.30
2019-05-13T01:52:27.482Z,1.30
2019-05-13T01:54:54.983Z,1.20
2019-05-13T01:57:23.829Z,1.20
2019-05-13T01:59:48.597Z,1.30
2019-05-13T02:02:15.378Z,1.10
2019-05-13T02:04:43.893Z,1.20
2019-05-13T02:07:08.905Z,1.30
2019-05-13T02:09:35.708Z,1.03
2019-05-13T02:12:04.940Z,1.00
2019-05-13T02:14:30.033Z,1.20
2019-05-13T02:16:56.781Z,0.90
2019-05-13T02:19:24.464Z,1.03
2019-05-13T02:21:50.355Z,1.10
2019-05-13T02:24:17.072Z,1.00
2019-05-13T02:26:44.608Z,0.97
2019-05-13T02:29:14.130Z,1.10
2019-05-13T02:31:46.465Z,1.23
2019-05-13T02:34:05.155Z,0.90
2019-05-13T02:36:32.978Z,1.00
2019-05-13T02:38:58.674Z,1.00
2019-05-13T02:41:25.471Z,1.00
2019-05-13T02:43:52.737Z,1.03
2019-05-13T02:46:19.004Z,1.07
2019-05-13T02:48:45.731Z,1.00
2019-05-13T02:51:12.613Z,1.07
2019-05-13T02:53:39.289Z,0.90
2019-05-13T02:56:05.980Z,0.97
2019-05-13T02:58:33.642Z,0.80
2019-05-13T03:01:02.743Z,0.80
2019-05-13T03:03:26.349Z,1.00
2019-05-13T03:05:53.575Z,0.90
2019-05-13T03:08:38.588Z,0.93
2019-05-13T03:10:46.808Z,0.70
2019-05-13T03:13:13.506Z,0.93
2019-05-13T03:15:45.184Z,1.00
2019-05-13T03:18:13.399Z,0.77
2019-05-13T03:20:38.750Z,1.30
2019-05-13T03:23:05.461Z,0.70
2019-05-13T03:25:33.303Z,1.00
2019-05-13T03:28:02.785Z,0.80
2019-05-13T03:30:26.373Z,0.97
2019-05-13T03:33:00.634Z,0.90
2019-05-13T03:35:25.669Z,1.00
2019-05-13T03:37:47.003Z,0.80
2019-05-13T03:40:13.789Z,1.00
2019-05-13T03:42:42.502Z,1.10
2019-05-13T03:45:07.390Z,1.13
2019-05-13T03:47:34.927Z,1.00
2019-05-13T03:50:03.446Z,1.10
2019-05-13T03:52:29.226Z,1.07
2019-05-13T03:54:56.118Z,0.83
2019-05-13T03:57:23.336Z,1.00
2019-05-13T03:59:52.590Z,1.00
2019-05-13T04:02:17.328Z,0.70
2019-05-13T04:04:44.779Z,0.90
2019-05-13T04:07:13.007Z,0.90
2019-05-13T04:09:42.169Z,1.00
2019-05-13T04:12:06.041Z,1.10
2019-05-13T04:14:34.021Z,1.10
2019-05-13T04:17:02.885Z,1.27
2019-05-13T04:19:28.147Z,0.90
2019-05-13T04:21:54.907Z,0.80
2019-05-13T04:24:22.986Z,0.77
2019-05-13T04:26:48.491Z,0.93
2019-05-13T04:29:15.229Z,0.87
2019-05-13T04:31:42.549Z,0.90
2019-05-13T04:34:12.156Z,0.90
2019-05-13T04:36:35.669Z,0.80
2019-05-13T04:39:03.439Z,1.00
2019-05-13T04:41:29.275Z,0.90
2019-05-13T04:43:56.778Z,0.70
2019-05-13T04:46:23.566Z,1.10
2019-05-13T04:48:53.023Z,0.80
2019-05-13T04:51:17.178Z,0.90
2019-05-13T04:53:44.933Z,1.20
2019-05-13T04:56:13.593Z,0.80
2019-05-13T04:58:38.573Z,0.90
2019-05-13T05:04:24.445Z,0.98
2019-05-13T05:06:44.428Z,0.90
2019-05-13T05:09:22.327Z,0.90
2019-05-13T05:15:12.102Z,1.00
2019-05-13T05:17:37.650Z,0.90
2019-05-13T05:20:08.061Z,1.00
2019-05-13T05:25:47.871Z,1.10
2019-05-13T05:28:31.939Z,1.10
2019-05-13T05:34:03.904Z,1.20
2019-05-13T05:36:47.936Z,1.30
2019-05-13T05:39:22.425Z,0.87
2019-05-13T05:41:48.700Z,0.90
2019-05-13T05:44:17.079Z,1.00
2019-05-13T05:46:44.750Z,1.00
2019-05-13T05:49:12.720Z,0.80
2019-05-13T05:51:39.112Z,0.70
2019-05-13T05:54:05.886Z,0.77
2019-05-13T05:56:33.430Z,1.00
2019-05-13T05:59:02.796Z,0.83
2019-05-13T06:01:27.046Z,0.77
2019-05-13T06:03:53.772Z,0.80
2019-05-13T06:06:22.781Z,0.60
2019-05-13T06:08:47.503Z,0.80
2019-05-13T06:11:14.967Z,0.90
2019-05-13T06:13:42.426Z,0.80
2019-05-13T06:16:12.188Z,0.90
2019-05-13T06:18:37.489Z,1.10
2019-05-13T06:21:04.304Z,0.80
2019-05-13T06:23:31.319Z,0.97
2019-05-13T06:25:57.892Z,1.00
2019-05-13T06:28:24.641Z,1.10
2019-05-13T06:30:52.109Z,0.90
2019-05-13T06:33:18.286Z,1.30
2019-05-13T06:35:45.762Z,0.83
2019-05-13T06:38:12.488Z,0.90
2019-05-13T06:40:42.214Z,1.00
2019-05-13T06:43:06.733Z,0.80
2019-05-13T06:45:48.361Z,1.07
2019-05-13T06:48:15.096Z,1.13
2019-05-13T06:50:41.854Z,1.00
2019-05-13T06:53:08.749Z,1.10
2019-05-13T06:55:35.363Z,1.00
2019-05-13T06:58:02.928Z,0.97
2019-05-13T07:00:34.168Z,0.70
2019-05-13T07:02:57.189Z,0.83
2019-05-13T07:05:24.618Z,0.70
2019-05-13T07:07:51.406Z,0.97
2019-05-13T07:10:18.854Z,0.80
2019-05-13T07:12:46.291Z,0.60
2019-05-13T07:15:13.084Z,1.00
2019-05-13T07:17:41.594Z,0.90
2019-05-13T07:20:06.698Z,0.70
2019-05-13T07:22:33.449Z,0.83
2019-05-13T07:25:02.341Z,0.73
2019-05-13T07:27:27.711Z,0.63
2019-05-13T07:29:55.734Z,0.90
2019-05-13T07:32:22.214Z,0.80
2019-05-13T07:34:48.823Z,0.40
2019-05-13T07:37:15.566Z,0.70
2019-05-13T07:39:43.055Z,0.70
2019-05-13T07:42:12.114Z,0.87
2019-05-13T07:44:36.532Z,0.87
2019-05-13T07:47:03.863Z,0.63
2019-05-13T07:49:31.573Z,0.80
2019-05-13T07:51:56.932Z,0.80
2019-05-13T07:54:24.386Z,0.80
2019-05-13T07:56:52.468Z,1.10
2019-05-13T07:59:20.951Z,0.70
2019-05-13T08:01:46.240Z,0.73
2019-05-13T08:04:21.410Z,0.70
2019-05-13T08:06:41.596Z,0.65
2019-05-13T08:09:06.670Z,0.75
2019-05-13T08:11:36.916Z,1.00
2019-05-13T08:14:01.925Z,0.80
2019-05-13T08:16:29.292Z,0.90
2019-05-13T08:18:56.003Z,0.62
2019-05-13T08:21:22.727Z,0.88
2019-05-13T08:23:52.243Z,0.70
2019-05-13T08:26:16.260Z,0.70
2019-05-13T08:28:56.909Z,0.90
2019-05-13T08:31:12.024Z,0.68
2019-05-13T08:33:37.368Z,0.70
2019-05-13T08:36:04.133Z,0.85
2019-05-13T08:38:31.903Z,0.80
2019-05-13T08:40:57.822Z,0.70
2019-05-13T08:43:24.523Z,0.70
2019-05-13T08:45:53.529Z,0.68
2019-05-13T08:48:18.114Z,0.88
2019-05-13T08:50:45.565Z,0.75
2019-05-13T08:53:12.454Z,0.98
2019-05-13T08:55:39.078Z,0.80
2019-05-13T08:58:06.579Z,0.60
2019-05-13T09:00:46.668Z,0.70
2019-05-13T09:03:13.440Z,0.85
2019-05-13T09:05:41.363Z,0.70
2019-05-13T09:08:07.097Z,0.60
2019-05-13T09:10:33.804Z,0.60
2019-05-13T09:13:01.911Z,0.63
2019-05-13T09:15:28.075Z,0.80
2019-05-13T09:17:54.803Z,0.60
2019-05-13T09:20:22.086Z,0.60
2019-05-13T09:22:48.338Z,0.67
2019-05-13T09:25:15.784Z,0.50
2019-05-13T09:27:58.132Z,0.70
2019-05-13T09:30:27.252Z,0.83
2019-05-13T09:32:52.373Z,0.53
2019-05-13T09:35:19.092Z,0.90
2019-05-13T09:37:45.896Z,0.70
2019-05-13T09:40:12.647Z,0.70
2019-05-13T09:42:50.878Z,0.70
2019-05-13T09:45:06.251Z,0.63
2019-05-13T09:47:32.977Z,0.93
2019-05-13T09:49:59.718Z,0.60
2019-05-13T09:52:26.426Z,0.57
2019-05-13T09:54:53.876Z,0.53
2019-05-13T09:57:22.042Z,0.80
2019-05-13T09:59:48.860Z,0.57
2019-05-13T10:02:15.626Z,0.60
2019-05-13T10:04:43.637Z,0.80
2019-05-13T10:07:11.947Z,0.70
2019-05-13T10:09:36.760Z,0.50
2019-05-13T10:12:03.686Z,0.70
2019-05-13T10:14:32.818Z,0.60
2019-05-13T10:16:57.929Z,0.67
2019-05-13T10:19:24.635Z,0.60
2019-05-13T10:21:52.397Z,0.70
2019-05-13T10:24:19.117Z,0.70
2019-05-13T10:26:45.845Z,0.60
2019-05-13T10:29:12.649Z,0.67
2019-05-13T10:31:41.811Z,0.43
2019-05-13T10:34:06.271Z,0.90
2019-05-13T10:36:33.093Z,0.63
2019-05-13T10:39:01.357Z,0.70
2019-05-13T10:41:26.690Z,0.70
2019-05-13T10:43:53.385Z,0.60
2019-05-13T10:46:22.060Z,0.60
2019-05-13T10:48:47.721Z,0.90
2019-05-13T10:51:14.581Z,0.53
2019-05-13T10:53:42.678Z,0.60
2019-05-13T10:56:08.149Z,0.70
2019-05-13T10:58:34.932Z,0.67
2019-05-13T11:01:02.767Z,0.80
2019-05-13T11:03:32.962Z,0.87
2019-05-13T11:05:57.447Z,0.70
2019-05-13T11:08:24.234Z,0.60
2019-05-13T11:10:53.183Z,0.60
2019-05-13T11:13:19.050Z,0.63
2019-05-13T11:15:46.230Z,0.60
2019-05-13T11:18:19.077Z,0.60
2019-05-13T11:20:41.845Z,0.70
2019-05-13T11:23:06.358Z,0.60
2019-05-13T11:25:33.842Z,0.50
2019-05-13T11:28:01.679Z,0.70
2019-05-13T11:30:27.454Z,0.70
2019-05-13T11:32:54.243Z,0.60
2019-05-13T11:35:22.901Z,0.40
2019-05-13T11:37:48.654Z,0.70
2019-05-13T11:40:16.122Z,0.80
2019-05-13T11:42:42.840Z,0.53
2019-05-13T11:45:11.787Z,0.60
2019-05-13T11:47:37.193Z,0.50
2019-05-13T11:50:05.788Z,0.77
2019-05-13T11:52:32.559Z,0.70
2019-05-13T11:55:02.646Z,0.60
2019-05-13T11:57:26.898Z,0.70
2019-05-13T11:59:53.621Z,0.60
2019-05-13T12:02:23.277Z,0.77
2019-05-13T12:04:47.202Z,0.50
2019-05-13T12:07:14.646Z,0.60
2019-05-13T12:09:41.363Z,0.80
2019-05-13T12:12:08.086Z,0.57
2019-05-13T12:14:48.419Z,0.90
2019-05-13T12:17:02.282Z,0.60
2019-05-13T12:19:28.393Z,0.67
2019-05-13T12:21:55.141Z,0.67
2019-05-13T12:26:52.831Z,0.40
2019-05-13T12:29:19.157Z,0.53
2019-05-13T12:31:42.496Z,0.53
2019-05-13T12:34:12.849Z,0.83
2019-05-13T12:36:36.154Z,0.70
2019-05-13T12:39:03.739Z,0.50
2019-05-13T12:41:33.034Z,0.60
2019-05-13T12:43:57.216Z,0.60
2019-05-13T12:46:24.933Z,0.60
2019-05-13T12:48:51.265Z,0.57
2019-05-13T12:51:18.047Z,0.50
2019-05-13T12:53:45.567Z,0.60
2019-05-13T12:56:12.760Z,0.70
2019-05-13T12:58:39.796Z,0.80
2019-05-13T13:01:06.705Z,0.60
2019-05-13T13:03:33.397Z,0.70
2019-05-13T13:06:22.768Z,0.60
2019-05-13T13:08:41.875Z,0.63
2019-05-13T13:10:54.363Z,0.60
2019-05-13T13:13:26.848Z,0.60
2019-05-13T13:15:48.837Z,0.53
2019-05-13T13:18:15.435Z,0.70
2019-05-13T13:20:42.484Z,0.50
2019-05-13T13:23:12.648Z,0.57
2019-05-13T13:25:36.824Z,0.80
2019-05-13T13:28:11.146Z,0.60
2019-05-13T13:30:35.034Z,0.60
2019-05-13T13:32:58.390Z,0.70
2019-05-13T13:35:25.102Z,0.70
2019-05-13T13:37:53.075Z,0.50
2019-05-13T13:40:25.949Z,0.73
2019-05-13T13:42:45.451Z,0.60
2019-05-13T13:45:12.183Z,0.70
2019-05-13T13:47:38.945Z,0.60
2019-05-13T13:50:05.802Z,0.73
2019-05-13T13:52:33.553Z,0.50
2019-05-13T13:55:04.373Z,0.50
2019-05-13T13:57:26.855Z,0.70
2019-05-13T14:00:20.963Z,0.60
2019-05-13T14:02:25.096Z,0.60
2019-05-13T14:04:47.332Z,0.57
2019-05-13T14:06:32.947Z,0.63
2019-05-13T14:07:22.679Z,0.57
2019-05-13T14:09:42.599Z,0.50
2019-05-13T14:12:11.355Z,0.80
2019-05-13T14:14:36.131Z,0.60
2019-05-13T14:17:02.895Z,0.83
2019-05-13T14:19:32.173Z,0.80
2019-05-13T14:21:56.389Z,0.70
2019-05-13T14:24:23.112Z,0.57
2019-05-13T14:26:52.153Z,0.70
2019-05-13T14:29:16.667Z,0.67
2019-05-13T14:31:43.485Z,0.90
2019-05-13T14:34:11.519Z,0.40
2019-05-13T14:36:37.757Z,0.50
2019-05-13T14:39:04.529Z,0.60
2019-05-13T14:41:31.396Z,0.60
2019-05-13T14:43:58.099Z,0.67
2019-05-13T14:46:35.454Z,0.53
2019-05-13T14:48:51.712Z,0.57
2019-05-13T14:51:18.406Z,0.60
2019-05-13T14:53:45.164Z,0.60
2019-05-13T14:56:14.269Z,0.57
2019-05-13T14:58:41.670Z,0.50
2019-05-13T15:01:17.604Z,0.53
2019-05-13T15:03:32.828Z,0.70
2019-05-13T15:06:01.511Z,0.67
2019-05-13T15:08:26.743Z,0.50
2019-05-13T15:10:55.290Z,0.70
2019-05-13T15:13:22.171Z,0.50
2019-05-13T15:15:51.504Z,0.60
2019-05-13T15:18:15.739Z,0.50
2019-05-13T15:20:43.238Z,0.40
2019-05-13T15:23:11.971Z,0.60
2019-05-13T15:25:37.534Z,0.50
2019-05-13T15:28:05.135Z,0.50
2019-05-13T15:30:31.885Z,0.57
2019-05-13T15:33:01.596Z,0.80
2019-05-13T15:35:26.898Z,0.40
2019-05-13T15:37:53.637Z,0.60
2019-05-13T15:40:22.024Z,0.67
2019-05-13T15:42:47.179Z,0.70
2019-05-13T15:45:13.969Z,0.47
2019-05-13T15:47:40.710Z,0.40
2019-05-13T15:50:07.475Z,0.60
2019-05-13T15:52:35.447Z,0.40
2019-05-13T15:55:02.354Z,0.67
2019-05-13T15:57:29.087Z,0.50
2019-05-13T15:59:55.881Z,0.57
2019-05-13T16:02:23.385Z,0.60
2019-05-13T16:05:00.296Z,0.70
2019-05-13T16:07:17.118Z,0.93
2019-05-13T16:09:44.530Z,0.60
2019-05-13T16:12:12.278Z,0.40
2019-05-13T16:14:39.830Z,0.40
2019-05-13T16:17:07.337Z,0.50
2019-05-13T16:19:34.295Z,0.70
2019-05-13T16:22:01.494Z,0.40
2019-05-13T16:24:28.011Z,0.50
2019-05-13T16:26:54.737Z,0.60
2019-05-13T16:29:22.549Z,0.50
2019-05-13T16:31:49.099Z,0.50
2019-05-13T16:34:16.119Z,0.60
2019-05-13T16:36:43.263Z,0.40
2019-05-13T16:39:12.343Z,0.60
2019-05-13T16:41:37.232Z,0.50
2019-05-13T16:44:05.460Z,0.60
2019-05-13T16:46:32.379Z,0.70
2019-05-13T16:49:01.421Z,0.50
2019-05-13T16:51:27.203Z,0.60
2019-05-13T16:53:53.965Z,0.57
2019-05-13T16:56:27.632Z,0.50
2019-05-13T16:58:47.992Z,0.60
2019-05-13T17:01:14.866Z,0.50
2019-05-13T17:03:41.744Z,0.50
2019-05-13T17:06:09.213Z,0.70
2019-05-13T17:08:36.010Z,0.50
2019-05-13T17:11:02.902Z,0.40
2019-05-13T17:13:31.537Z,0.50
2019-05-13T17:15:57.307Z,0.30
2019-05-13T17:18:24.043Z,0.60
2019-05-13T17:20:52.030Z,0.60
2019-05-13T17:23:18.765Z,0.60
2019-05-13T17:25:45.759Z,0.60
2019-05-13T17:28:13.569Z,0.57
2019-05-13T17:30:40.338Z,0.70
2019-05-13T17:33:08.172Z,0.50
2019-05-13T17:35:34.860Z,0.60
2019-05-13T17:38:02.069Z,0.70
2019-05-13T17:40:31.346Z,0.60
2019-05-13T17:42:55.742Z,0.50
2019-05-13T17:45:22.844Z,0.60
2019-05-13T17:47:52.022Z,0.60
2019-05-13T17:50:17.104Z,0.60
2019-05-13T17:52:43.994Z,0.70
2019-05-13T17:55:11.778Z,0.57
2019-05-13T17:57:37.645Z,0.60
2019-05-13T18:00:05.539Z,0.50
2019-05-13T18:02:32.332Z,0.60
2019-05-13T18:05:01.830Z,0.60
2019-05-13T18:07:26.171Z,0.50
2019-05-13T18:09:53.149Z,0.50
2019-05-13T18:12:22.135Z,0.70
2019-05-13T18:14:46.711Z,0.70
2019-05-13T18:17:13.436Z,0.73
2019-05-13T18:19:42.126Z,0.50
2019-05-13T18:22:07.721Z,0.87
2019-05-13T18:24:35.179Z,0.60
2019-05-13T18:27:01.893Z,0.40
2019-05-13T18:29:28.636Z,0.63
2019-05-13T18:31:55.353Z,0.70
2019-05-13T18:34:22.114Z,0.60
2019-05-13T18:36:51.400Z,0.53
2019-05-13T18:39:16.558Z,0.60
2019-05-13T18:41:43.883Z,0.57
2019-05-13T18:44:12.301Z,0.73
2019-05-13T18:46:37.538Z,0.60
2019-05-13T18:49:04.834Z,0.50
2019-05-13T18:51:31.721Z,0.70
2019-05-13T18:54:01.138Z,0.60
2019-05-13T18:56:26.193Z,0.80
2019-05-13T18:58:53.240Z,1.00
2019-05-13T19:01:21.545Z,0.80
2019-05-13T19:03:48.624Z,0.63
2019-05-13T19:06:15.537Z,0.70
2019-05-13T19:08:42.843Z,0.80
2019-05-13T19:11:12.515Z,0.60
2019-05-13T19:13:41.650Z,0.80
2019-05-13T19:16:07.028Z,0.70
2019-05-13T19:18:34.277Z,1.70
2019-05-13T19:21:02.179Z,1.70
2019-05-13T19:23:31.336Z,1.17
2019-05-13T19:25:56.944Z,1.20
2019-05-13T19:28:38.917Z,0.70
2019-05-13T19:31:06.542Z,0.87
2019-05-13T19:33:33.767Z,1.00
2019-05-13T19:36:02.136Z,1.03
2019-05-13T19:38:31.682Z,0.70
2019-05-13T19:40:56.194Z,0.97
2019-05-13T19:43:23.037Z,0.83
2019-05-13T19:45:51.902Z,1.10
2019-05-13T19:48:18.426Z,1.30
2019-05-13T19:50:45.281Z,1.30
2019-05-13T19:53:12.298Z,0.97
2019-05-13T19:55:41.272Z,1.10
2019-05-13T19:58:07.232Z,0.90
2019-05-13T20:00:34.213Z,0.90
2019-05-13T20:03:00.948Z,0.90
2019-05-13T20:05:28.509Z,1.23
2019-05-13T20:07:56.124Z,0.90
2019-05-13T20:10:22.849Z,1.17
2019-05-13T20:12:51.279Z,1.03
2019-05-13T20:15:16.376Z,1.10
2019-05-13T20:17:43.068Z,1.20
2019-05-13T20:20:12.150Z,1.00
2019-05-13T20:22:36.553Z,0.90
2019-05-13T20:25:03.267Z,0.80
2019-05-13T20:27:31.681Z,0.70
2019-05-13T20:29:57.556Z,0.90
2019-05-13T20:32:24.237Z,0.93
2019-05-13T20:34:51.422Z,1.07
2019-05-13T20:37:17.739Z,1.20
2019-05-13T20:39:44.440Z,0.80
2019-05-13T20:42:12.462Z,1.30
2019-05-13T20:44:39.215Z,1.13
2019-05-13T20:47:05.970Z,0.90
2019-05-13T20:49:33.442Z,1.10
2019-05-13T20:52:00.863Z,1.10
2019-05-13T20:54:27.542Z,1.27
2019-05-13T20:56:55.003Z,0.73
2019-05-13T20:59:21.757Z,1.10
2019-05-13T21:01:48.431Z,1.00
2019-05-13T21:04:15.150Z,1.00
2019-05-13T21:06:42.344Z,1.03
2019-05-13T21:09:12.372Z,0.80
2019-05-13T21:11:35.493Z,1.10
2019-05-13T21:14:02.218Z,1.23
2019-05-13T21:16:29.737Z,1.20
2019-05-13T21:18:57.227Z,1.53
2019-05-13T21:21:23.964Z,1.20
2019-05-13T21:23:52.235Z,1.20
2019-05-13T21:26:17.506Z,1.60
2019-05-13T21:28:44.929Z,1.40
2019-05-13T21:31:11.977Z,1.30
2019-05-13T21:33:39.615Z,1.07
2019-05-13T21:36:06.307Z,1.20
2019-05-13T21:38:33.728Z,1.03
2019-05-13T21:41:00.453Z,1.13
2019-05-13T21:43:27.131Z,0.93
2019-05-13T21:45:53.894Z,1.10
2019-05-13T21:48:21.825Z,0.83
2019-05-13T21:50:48.871Z,1.03
2019-05-13T21:53:15.574Z,0.80
2019-05-13T21:55:42.249Z,1.13
2019-05-13T21:58:11.396Z,1.00
2019-05-13T22:00:38.062Z,1.07
2019-05-13T22:03:04.890Z,1.03
2019-05-13T22:05:31.593Z,1.30
2019-05-13T22:07:58.290Z,1.00
2019-05-13T22:10:25.002Z,0.90
2019-05-13T22:12:52.150Z,1.00
2019-05-13T22:15:18.578Z,1.00
2019-05-13T22:17:45.354Z,0.80
2019-05-13T22:20:12.307Z,1.00
2019-05-13T22:22:41.419Z,1.00
2019-05-13T22:25:06.068Z,0.90
2019-05-13T22:27:32.775Z,0.90
2019-05-13T22:30:01.337Z,0.80
2019-05-13T22:32:26.328Z,1.00
2019-05-13T22:34:53.411Z,0.90
2019-05-13T22:37:20.158Z,0.77
2019-05-13T22:39:46.878Z,1.23
2019-05-13T22:42:13.560Z,0.90
2019-05-13T22:44:41.724Z,0.93
2019-05-13T22:47:07.081Z,1.13
2019-05-13T22:49:33.777Z,0.90
2019-05-13T22:52:00.437Z,1.00
2019-05-13T22:54:27.228Z,1.10
2019-05-13T22:56:54.644Z,0.93
2019-05-13T22:59:21.557Z,1.10
2019-05-13T23:01:48.140Z,1.10
2019-05-13T23:04:14.820Z,1.40
2019-05-13T23:06:42.275Z,1.20
2019-05-13T23:09:12.350Z,1.20
2019-05-13T23:11:37.976Z,1.40
2019-05-13T23:14:09.774Z,1.00
2019-05-13T23:16:31.709Z,0.90
2019-05-13T23:18:59.153Z,1.10
2019-05-13T23:21:26.561Z,1.73
2019-05-13T23:23:53.261Z,1.17
2019-05-13T23:26:21.050Z,1.27
2019-05-13T23:28:47.510Z,1.37
2019-05-13T23:31:14.196Z,1.23
2019-05-13T23:33:41.707Z,1.67
2019-05-13T23:36:08.433Z,1.57
2019-05-13T23:38:35.110Z,1.80
2019-05-13T23:41:02.649Z,1.47
2019-05-13T23:43:31.039Z,1.30
2019-05-13T23:45:57.157Z,1.33
2019-05-13T23:48:23.863Z,1.40
2019-05-13T23:50:52.202Z,1.30
2019-05-13T23:53:18.140Z,1.10
2019-05-13T23:55:44.800Z,1.27
2019-05-13T23:58:12.160Z,1.10
